createdAt,value
2023-07-17T00:00:44.994Z,64.88
2023-07-17T00:03:13.173Z,64.84
2023-07-17T00:05:41.906Z,64.88
2023-07-17T00:08:11.078Z,64.90
2023-07-17T00:10:39.829Z,64.64
2023-07-17T00:13:07.423Z,65.07
2023-07-17T00:15:34.709Z,65.34
2023-07-17T00:18:01.946Z,65.07
2023-07-17T00:20:29.448Z,65.25
2023-07-17T00:22:56.737Z,65.46
2023-07-17T00:25:24.668Z,65.34
2023-07-17T00:27:52.642Z,65.43
2023-07-17T00:30:19.840Z,65.12
2023-07-17T00:32:47.112Z,65.34
2023-07-17T00:35:15.783Z,65.22
2023-07-17T00:37:43.533Z,65.44
2023-07-17T00:40:12.462Z,66.00
2023-07-17T00:42:40.920Z,66.29
2023-07-17T00:45:08.860Z,66.32
2023-07-17T00:47:36.530Z,66.38
2023-07-17T00:50:05.309Z,66.65
2023-07-17T00:52:34.089Z,66.64
2023-07-17T00:55:01.469Z,66.74
2023-07-17T00:57:28.643Z,66.92
2023-07-17T00:59:55.870Z,66.69
2023-07-17T01:02:23.647Z,66.82
2023-07-17T01:04:53.302Z,66.98
2023-07-17T01:07:20.460Z,67.10
2023-07-17T01:09:49.337Z,67.13
2023-07-17T01:12:16.648Z,67.00
2023-07-17T01:14:43.918Z,67.02
2023-07-17T01:17:12.254Z,67.21
2023-07-17T01:19:39.988Z,67.34
2023-07-17T01:22:12.304Z,67.39
2023-07-17T01:24:40.307Z,67.36
2023-07-17T01:27:10.648Z,67.53
2023-07-17T01:29:38.045Z,67.82
2023-07-17T01:32:06.334Z,67.61
2023-07-17T01:34:33.662Z,67.21
2023-07-17T01:37:01.350Z,67.38
2023-07-17T01:39:32.107Z,67.62
2023-07-17T01:41:59.260Z,67.07
2023-07-17T01:44:31.477Z,67.25
2023-07-17T01:46:59.784Z,66.89
2023-07-17T01:49:27.608Z,66.48
2023-07-17T01:51:54.757Z,66.85
2023-07-17T01:54:22.661Z,66.44
2023-07-17T01:56:50.029Z,66.63
2023-07-17T01:59:17.358Z,66.92
2023-07-17T02:01:44.803Z,67.18
2023-07-17T02:04:14.464Z,67.08
2023-07-17T02:06:41.757Z,66.78
2023-07-17T02:09:09.384Z,67.28
2023-07-17T02:11:37.863Z,67.35
2023-07-17T02:14:06.920Z,67.05
2023-07-17T02:16:34.095Z,67.45
2023-07-17T02:19:01.397Z,67.53
2023-07-17T02:21:28.963Z,67.74
2023-07-17T02:23:57.165Z,68.23
2023-07-17T02:26:24.622Z,68.13
2023-07-17T02:28:51.825Z,67.98
2023-07-17T02:31:19.471Z,68.39
2023-07-17T02:33:47.373Z,68.65
2023-07-17T02:36:14.678Z,68.14
2023-07-17T02:38:44.750Z,68.33
2023-07-17T02:41:15.402Z,68.67
2023-07-17T02:43:43.023Z,68.86
2023-07-17T02:46:10.553Z,68.48
2023-07-17T02:48:38.016Z,68.57
2023-07-17T02:51:05.230Z,68.49
2023-07-17T02:53:32.542Z,68.67
2023-07-17T02:56:00.001Z,69.11
2023-07-17T02:58:27.190Z,69.37
2023-07-17T03:00:54.710Z,69.21
2023-07-17T03:03:22.205Z,69.81
2023-07-17T03:05:50.216Z,70.08
2023-07-17T03:08:17.751Z,70.59
2023-07-17T03:10:46.480Z,69.88
2023-07-17T03:13:13.981Z,69.72
2023-07-17T03:15:42.168Z,69.94
2023-07-17T03:18:09.403Z,70.28
2023-07-17T03:20:37.356Z,70.34
2023-07-17T03:23:04.764Z,70.50
2023-07-17T03:25:32.450Z,70.48
2023-07-17T03:27:59.618Z,69.86
2023-07-17T03:30:26.903Z,69.77
2023-07-17T03:32:54.392Z,69.90
2023-07-17T03:35:21.607Z,70.06
2023-07-17T03:37:49.058Z,69.71
2023-07-17T03:40:16.716Z,69.95
2023-07-17T03:42:44.297Z,70.09
2023-07-17T03:45:11.980Z,70.25
2023-07-17T03:47:40.760Z,69.51
2023-07-17T03:50:09.300Z,69.49
2023-07-17T03:52:37.149Z,68.97
2023-07-17T03:55:06.070Z,69.01
2023-07-17T03:57:33.352Z,68.31
2023-07-17T04:00:00.783Z,67.92
2023-07-17T04:02:43.826Z,67.63
2023-07-17T04:05:19.773Z,68.04
2023-07-17T04:07:47.384Z,67.70
2023-07-17T04:10:15.596Z,67.52
2023-07-17T04:12:43.023Z,67.10
2023-07-17T04:15:11.217Z,66.85
2023-07-17T04:17:38.687Z,66.78
2023-07-17T04:20:10.456Z,65.03
2023-07-17T04:22:37.819Z,65.33
2023-07-17T04:25:06.276Z,64.25
2023-07-17T04:27:34.928Z,64.34
2023-07-17T04:30:02.663Z,64.11
2023-07-17T04:32:32.567Z,63.76
2023-07-17T04:34:59.949Z,64.25
2023-07-17T04:37:27.990Z,64.41
2023-07-17T04:39:56.353Z,64.07
2023-07-17T04:42:23.578Z,63.96
2023-07-17T04:44:50.912Z,64.33
2023-07-17T04:47:19.448Z,63.78
2023-07-17T04:49:47.964Z,63.98
2023-07-17T04:52:16.129Z,63.15
2023-07-17T04:54:45.346Z,62.79
2023-07-17T04:57:12.522Z,63.12
2023-07-17T04:59:40.365Z,62.98
2023-07-17T05:02:07.769Z,62.79
2023-07-17T05:04:35.714Z,62.54
2023-07-17T05:07:03.479Z,61.17
2023-07-17T05:09:31.069Z,60.97
2023-07-17T05:11:58.369Z,61.87
2023-07-17T05:14:26.124Z,61.36
2023-07-17T05:16:53.394Z,61.59
2023-07-17T05:19:22.887Z,62.53
2023-07-17T05:21:50.553Z,63.01
2023-07-17T05:24:18.006Z,63.08
2023-07-17T05:26:45.431Z,62.33
2023-07-17T05:29:12.638Z,61.49
2023-07-17T05:31:41.445Z,61.94
2023-07-17T05:34:08.658Z,62.51
2023-07-17T05:36:36.870Z,63.04
2023-07-17T05:39:06.254Z,62.46
2023-07-17T05:41:35.029Z,61.63
2023-07-17T05:44:02.357Z,61.53
2023-07-17T05:46:31.564Z,61.38
2023-07-17T05:48:58.978Z,61.42
2023-07-17T05:51:26.233Z,61.66
2023-07-17T05:53:54.158Z,61.72
2023-07-17T05:56:21.572Z,62.28
2023-07-17T05:58:49.762Z,62.83
2023-07-17T06:01:17.228Z,61.98
2023-07-17T06:03:46.641Z,62.30
2023-07-17T06:06:14.104Z,61.66
2023-07-17T06:08:42.378Z,61.24
2023-07-17T06:11:09.996Z,61.39
2023-07-17T06:13:37.350Z,60.83
2023-07-17T06:16:05.157Z,61.55
2023-07-17T06:18:32.683Z,60.91
2023-07-17T06:21:00.079Z,61.33
2023-07-17T06:23:27.882Z,60.78
2023-07-17T06:25:55.275Z,60.76
2023-07-17T06:28:22.573Z,59.36
2023-07-17T06:30:50.084Z,59.20
2023-07-17T06:33:17.440Z,57.85
2023-07-17T06:35:45.696Z,57.71
2023-07-17T06:38:12.948Z,57.87
2023-07-17T06:40:40.519Z,56.74
2023-07-17T06:43:08.038Z,56.61
2023-07-17T06:45:36.293Z,54.83
2023-07-17T06:48:04.177Z,55.88
2023-07-17T06:50:31.830Z,56.31
2023-07-17T06:52:59.002Z,55.52
2023-07-17T06:55:29.081Z,55.73
2023-07-17T06:57:56.275Z,55.88
2023-07-17T07:00:23.513Z,55.43
2023-07-17T07:02:51.031Z,54.65
2023-07-17T07:05:18.333Z,55.24
2023-07-17T07:07:45.874Z,55.50
2023-07-17T07:10:13.482Z,55.43
2023-07-17T07:12:41.842Z,56.22
2023-07-17T07:15:10.394Z,55.16
2023-07-17T07:17:37.887Z,55.63
2023-07-17T07:20:06.491Z,55.68
2023-07-17T07:22:34.298Z,54.81
2023-07-17T07:25:01.754Z,54.03
2023-07-17T07:27:32.490Z,54.24
2023-07-17T07:30:00.075Z,54.06
2023-07-17T07:32:27.577Z,52.03
2023-07-17T07:34:55.033Z,51.56
2023-07-17T07:37:22.199Z,50.53
2023-07-17T07:39:49.453Z,50.63
2023-07-17T07:42:18.112Z,50.92
2023-07-17T07:44:45.667Z,49.56
2023-07-17T07:47:13.005Z,49.91
2023-07-17T07:49:40.268Z,49.68
2023-07-17T07:52:08.108Z,50.38
2023-07-17T07:54:35.895Z,49.52
2023-07-17T07:57:03.359Z,48.85
2023-07-17T07:59:30.667Z,50.24
2023-07-17T08:01:57.952Z,49.46
2023-07-17T08:04:25.308Z,50.21
2023-07-17T08:06:52.619Z,49.69
2023-07-17T08:09:19.882Z,47.88
2023-07-17T08:11:47.231Z,47.23
2023-07-17T08:14:14.764Z,47.91
2023-07-17T08:16:43.031Z,48.61
2023-07-17T08:19:13.444Z,48.02
2023-07-17T08:21:40.787Z,47.88
2023-07-17T08:24:08.277Z,46.22
2023-07-17T08:26:35.727Z,45.97
2023-07-17T08:29:04.270Z,45.32
2023-07-17T08:31:33.361Z,44.31
2023-07-17T08:34:01.464Z,44.14
2023-07-17T08:36:31.991Z,42.89
2023-07-17T08:38:59.433Z,43.71
2023-07-17T08:41:27.030Z,44.93
2023-07-17T08:43:54.427Z,43.55
2023-07-17T08:46:22.060Z,43.65
2023-07-17T08:48:50.310Z,44.39
2023-07-17T08:51:17.966Z,43.55
2023-07-17T08:53:49.908Z,43.47
2023-07-17T08:56:17.191Z,42.72
2023-07-17T08:58:44.613Z,43.75
2023-07-17T09:01:17.897Z,41.75
2023-07-17T09:03:45.780Z,43.84
2023-07-17T09:06:14.592Z,43.97
2023-07-17T09:08:42.824Z,43.71
2023-07-17T09:11:10.110Z,43.97
2023-07-17T09:13:43.529Z,43.24
2023-07-17T09:16:21.659Z,42.80
2023-07-17T09:18:50.328Z,44.02
2023-07-17T09:21:24.533Z,43.30
2023-07-17T09:23:53.469Z,41.25
2023-07-17T09:26:22.495Z,41.91
2023-07-17T09:28:59.111Z,41.30
2023-07-17T09:31:30.780Z,41.28
2023-07-17T09:34:00.479Z,41.60
2023-07-17T09:36:28.375Z,42.34
2023-07-17T09:38:57.006Z,42.60
2023-07-17T09:41:28.428Z,42.06
2023-07-17T09:44:09.166Z,40.94
2023-07-17T09:46:38.464Z,40.09
2023-07-17T09:49:07.849Z,39.72
2023-07-17T09:51:36.189Z,40.13
2023-07-17T09:54:04.039Z,39.27
2023-07-17T09:56:32.822Z,39.41
2023-07-17T09:59:15.634Z,39.14
2023-07-17T10:01:49.134Z,38.39
2023-07-17T10:04:18.087Z,38.01
2023-07-17T10:06:47.792Z,38.88
2023-07-17T10:09:15.630Z,39.53
2023-07-17T10:11:43.263Z,39.50
2023-07-17T10:14:10.563Z,38.68
2023-07-17T10:16:37.859Z,38.38
2023-07-17T10:19:05.664Z,38.14
2023-07-17T10:21:33.448Z,38.75
2023-07-17T10:24:04.308Z,37.94
2023-07-17T10:26:32.061Z,39.44
2023-07-17T10:29:04.775Z,38.03
2023-07-17T10:31:33.205Z,37.46
2023-07-17T10:34:05.788Z,38.11
2023-07-17T10:36:47.512Z,40.37
2023-07-17T10:39:27.250Z,39.00
2023-07-17T10:41:54.459Z,38.07
2023-07-17T10:44:21.952Z,39.16
2023-07-17T10:46:50.092Z,39.82
2023-07-17T10:49:18.797Z,38.30
2023-07-17T10:51:50.148Z,37.16
2023-07-17T10:54:18.076Z,37.70
2023-07-17T10:56:47.753Z,37.15
2023-07-17T10:59:15.858Z,37.85
2023-07-17T11:01:44.773Z,37.25
2023-07-17T11:04:12.262Z,36.98
2023-07-17T11:07:08.762Z,37.32
2023-07-17T11:09:37.671Z,36.63
2023-07-17T11:12:07.373Z,38.06
2023-07-17T11:14:34.623Z,37.90
2023-07-17T11:17:02.094Z,37.71
2023-07-17T11:19:30.105Z,38.05
2023-07-17T11:21:57.425Z,37.70
2023-07-17T11:24:25.535Z,37.95
2023-07-17T11:26:55.332Z,38.18
2023-07-17T11:29:23.154Z,39.33
2023-07-17T11:32:01.056Z,38.23
2023-07-17T11:34:28.482Z,39.38
2023-07-17T11:36:55.873Z,38.14
2023-07-17T11:39:23.755Z,36.81
2023-07-17T11:41:55.744Z,36.72
2023-07-17T11:44:24.839Z,38.50
2023-07-17T11:46:59.781Z,39.15
2023-07-17T11:49:27.978Z,39.49
2023-07-17T11:51:56.467Z,38.55
2023-07-17T11:54:31.143Z,37.11
2023-07-17T11:57:00.549Z,38.14
2023-07-17T11:59:28.064Z,37.64
2023-07-17T12:01:55.587Z,37.92
2023-07-17T12:04:27.315Z,37.29
2023-07-17T12:06:55.222Z,37.84
2023-07-17T12:09:23.458Z,38.19
2023-07-17T12:11:51.085Z,38.87
2023-07-17T12:14:19.882Z,38.28
2023-07-17T12:16:47.872Z,37.62
2023-07-17T12:19:15.480Z,39.21
2023-07-17T12:21:43.398Z,38.29
2023-07-17T12:24:13.446Z,37.56
2023-07-17T12:26:44.775Z,38.33
2023-07-17T12:29:12.338Z,38.51
2023-07-17T12:31:39.812Z,37.61
2023-07-17T12:34:08.415Z,38.33
2023-07-17T12:36:35.991Z,39.77
2023-07-17T12:39:15.896Z,38.09
2023-07-17T12:41:44.635Z,37.41
2023-07-17T12:44:12.492Z,39.71
2023-07-17T12:46:39.840Z,38.29
2023-07-17T12:49:07.364Z,38.95
2023-07-17T12:51:35.617Z,38.75
2023-07-17T12:54:03.073Z,38.86
2023-07-17T12:56:30.741Z,37.77
2023-07-17T12:58:58.446Z,38.58
2023-07-17T13:01:25.999Z,38.44
2023-07-17T13:03:53.613Z,39.44
2023-07-17T13:06:21.748Z,36.68
2023-07-17T13:08:49.842Z,37.58
2023-07-17T13:11:18.425Z,38.46
2023-07-17T13:13:45.999Z,38.52
2023-07-17T13:16:13.828Z,38.84
2023-07-17T13:18:42.203Z,39.15
2023-07-17T13:21:12.215Z,39.69
2023-07-17T13:23:39.701Z,39.69
2023-07-17T13:26:07.598Z,38.76
2023-07-17T13:28:36.017Z,39.16
2023-07-17T13:31:09.855Z,39.95
2023-07-17T13:33:39.774Z,40.11
2023-07-17T13:36:07.588Z,38.85
2023-07-17T13:38:35.458Z,37.41
2023-07-17T13:41:02.851Z,38.19
2023-07-17T13:43:30.385Z,39.33
2023-07-17T13:45:59.143Z,37.35
2023-07-17T13:48:26.748Z,37.40
2023-07-17T13:50:54.244Z,36.57
2023-07-17T13:53:22.122Z,37.74
2023-07-17T13:55:49.871Z,38.46
2023-07-17T13:58:17.208Z,36.89
2023-07-17T14:00:45.154Z,37.64
2023-07-17T14:03:15.394Z,37.62
2023-07-17T14:05:44.599Z,37.24
2023-07-17T14:08:12.088Z,38.36
2023-07-17T14:10:40.038Z,37.83
2023-07-17T14:13:07.463Z,38.15
2023-07-17T14:15:36.081Z,38.00
2023-07-17T14:18:05.139Z,39.13
2023-07-17T14:20:34.307Z,38.34
2023-07-17T14:23:02.091Z,38.04
2023-07-17T14:25:29.794Z,36.59
2023-07-17T14:27:57.322Z,37.01
2023-07-17T14:30:24.644Z,36.84
2023-07-17T14:32:53.267Z,37.07
2023-07-17T14:35:20.918Z,37.38
2023-07-17T14:37:48.382Z,36.02
2023-07-17T14:40:15.824Z,36.08
2023-07-17T14:42:43.270Z,36.75
2023-07-17T14:45:11.033Z,37.46
2023-07-17T14:47:38.611Z,37.23
2023-07-17T14:50:07.618Z,37.41
2023-07-17T14:52:35.307Z,37.36
2023-07-17T14:55:03.009Z,36.39
2023-07-17T14:57:30.730Z,37.19
2023-07-17T14:59:58.737Z,36.41
2023-07-17T15:02:26.233Z,36.50
2023-07-17T15:04:53.549Z,35.60
2023-07-17T15:07:20.831Z,35.82
2023-07-17T15:09:48.159Z,35.88
2023-07-17T15:12:15.852Z,36.38
2023-07-17T15:14:43.391Z,35.81
2023-07-17T15:17:11.112Z,36.46
2023-07-17T15:19:42.113Z,37.49
2023-07-17T15:22:10.177Z,37.02
2023-07-17T15:24:39.060Z,37.45
2023-07-17T15:27:06.360Z,37.22
2023-07-17T15:29:34.550Z,38.19
2023-07-17T15:32:02.105Z,37.33
2023-07-17T15:34:29.941Z,38.29
2023-07-17T15:36:57.897Z,38.72
2023-07-17T15:39:25.297Z,38.83
2023-07-17T15:41:52.648Z,38.28
2023-07-17T15:44:19.876Z,39.88
2023-07-17T15:46:47.731Z,38.46
2023-07-17T15:49:15.338Z,38.45
2023-07-17T15:51:42.749Z,37.59
2023-07-17T15:54:11.368Z,37.50
2023-07-17T15:56:39.136Z,37.60
2023-07-17T15:59:06.594Z,38.17
2023-07-17T16:01:35.018Z,38.97
2023-07-17T16:04:02.615Z,38.98
2023-07-17T16:06:30.115Z,38.61
2023-07-17T16:08:57.879Z,39.27
2023-07-17T16:11:25.273Z,38.64
2023-07-17T16:13:52.813Z,38.68
2023-07-17T16:16:22.109Z,39.35
2023-07-17T16:18:49.867Z,40.37
2023-07-17T16:21:17.091Z,39.36
2023-07-17T16:23:44.650Z,40.12
2023-07-17T16:26:11.918Z,39.79
2023-07-17T16:28:39.747Z,39.94
2023-07-17T16:31:07.382Z,39.96
2023-07-17T16:33:34.834Z,40.35
2023-07-17T16:36:02.339Z,39.96
2023-07-17T16:38:30.298Z,39.63
2023-07-17T16:40:58.045Z,40.03
2023-07-17T16:43:25.303Z,39.76
2023-07-17T16:45:54.575Z,39.28
2023-07-17T16:48:21.810Z,40.10
2023-07-17T16:50:49.621Z,39.90
2023-07-17T16:53:17.190Z,39.77
2023-07-17T16:55:44.699Z,40.14
2023-07-17T16:58:14.462Z,40.09
2023-07-17T17:00:42.819Z,39.92
2023-07-17T17:03:10.097Z,39.89
2023-07-17T17:05:40.294Z,40.07
2023-07-17T17:08:08.469Z,40.65
2023-07-17T17:10:37.752Z,41.30
2023-07-17T17:13:05.293Z,41.48
2023-07-17T17:15:32.816Z,42.78
2023-07-17T17:18:01.028Z,43.23
2023-07-17T17:20:28.846Z,43.31
2023-07-17T17:22:56.693Z,43.78
2023-07-17T17:25:24.059Z,43.79
2023-07-17T17:27:51.796Z,44.47
2023-07-17T17:30:21.041Z,44.44
2023-07-17T17:32:48.486Z,44.76
2023-07-17T17:35:16.376Z,45.47
2023-07-17T17:37:44.834Z,45.73
2023-07-17T17:40:13.255Z,45.66
2023-07-17T17:42:40.589Z,45.95
2023-07-17T17:45:11.085Z,46.14
2023-07-17T17:47:42.117Z,46.87
2023-07-17T17:50:10.455Z,46.82
2023-07-17T17:52:37.727Z,47.06
2023-07-17T17:55:05.327Z,47.52
2023-07-17T17:57:32.706Z,47.51
2023-07-17T17:59:59.999Z,47.52
2023-07-17T18:02:28.014Z,47.75
2023-07-17T18:04:55.554Z,48.08
2023-07-17T18:07:23.040Z,48.45
2023-07-17T18:09:54.175Z,48.14
2023-07-17T18:12:21.419Z,48.44
2023-07-17T18:14:48.872Z,48.75
2023-07-17T18:17:16.257Z,48.96
2023-07-17T18:19:43.450Z,49.48
2023-07-17T18:22:10.753Z,49.85
2023-07-17T18:24:38.955Z,49.91
2023-07-17T18:27:07.011Z,50.08
2023-07-17T18:29:35.114Z,50.75
2023-07-17T18:32:02.720Z,50.77
2023-07-17T18:34:33.410Z,51.18
2023-07-17T18:37:00.957Z,51.44
2023-07-17T18:39:29.151Z,51.79
2023-07-17T18:41:57.633Z,52.17
2023-07-17T18:44:25.332Z,52.10
2023-07-17T18:46:52.743Z,52.16
2023-07-17T18:49:21.311Z,52.27
2023-07-17T18:51:49.075Z,52.67
2023-07-17T18:54:16.503Z,52.82
2023-07-17T18:56:44.244Z,53.16
2023-07-17T18:59:19.036Z,53.37
2023-07-17T19:01:47.116Z,53.27
2023-07-17T19:04:14.499Z,53.63
2023-07-17T19:06:42.634Z,53.77
2023-07-17T19:09:10.524Z,53.74
2023-07-17T19:11:37.992Z,53.88
2023-07-17T19:14:05.442Z,53.92
2023-07-17T19:16:33.657Z,53.99
2023-07-17T19:19:01.326Z,54.20
2023-07-17T19:21:29.088Z,54.24
2023-07-17T19:23:57.964Z,54.42
2023-07-17T19:26:27.086Z,54.60
2023-07-17T19:28:54.907Z,54.63
2023-07-17T19:31:27.601Z,54.89
2023-07-17T19:33:55.888Z,55.03
2023-07-17T19:36:23.900Z,55.13
2023-07-17T19:38:51.594Z,55.34
2023-07-17T19:41:19.761Z,55.63
2023-07-17T19:43:48.927Z,55.91
2023-07-17T19:46:18.126Z,56.22
2023-07-17T19:48:45.772Z,56.23
2023-07-17T19:51:13.029Z,56.52
2023-07-17T19:53:41.276Z,56.87
2023-07-17T19:56:08.575Z,57.06
2023-07-17T19:58:35.898Z,57.04
2023-07-17T20:01:03.823Z,57.24
2023-07-17T20:03:31.927Z,57.32
2023-07-17T20:05:59.787Z,57.46
2023-07-17T20:08:27.073Z,57.56
2023-07-17T20:10:54.510Z,57.47
2023-07-17T20:13:22.915Z,57.62
2023-07-17T20:15:50.377Z,57.33
2023-07-17T20:18:17.586Z,57.39
2023-07-17T20:20:45.174Z,57.37
2023-07-17T20:23:12.502Z,57.57
2023-07-17T20:25:41.024Z,57.44
2023-07-17T20:28:09.191Z,57.71
2023-07-17T20:30:36.898Z,57.62
2023-07-17T20:33:04.209Z,57.55
2023-07-17T20:35:31.786Z,57.31
2023-07-17T20:38:00.436Z,57.59
2023-07-17T20:40:28.194Z,57.26
2023-07-17T20:42:57.548Z,57.11
2023-07-17T20:45:33.794Z,57.42
2023-07-17T20:48:02.185Z,57.18
2023-07-17T20:50:29.805Z,57.14
2023-07-17T20:52:58.150Z,57.29
2023-07-17T20:55:25.435Z,57.56
2023-07-17T20:57:52.613Z,57.95
2023-07-17T21:00:19.885Z,58.03
2023-07-17T21:02:47.486Z,57.90
2023-07-17T21:05:23.073Z,58.11
2023-07-17T21:07:51.460Z,58.31
2023-07-17T21:10:19.294Z,58.57
2023-07-17T21:12:47.655Z,58.57
2023-07-17T21:15:15.097Z,58.67
2023-07-17T21:17:45.265Z,58.36
2023-07-17T21:20:14.145Z,58.54
2023-07-17T21:22:43.147Z,58.85
2023-07-17T21:25:11.154Z,58.72
2023-07-17T21:27:38.600Z,58.56
2023-07-17T21:30:06.775Z,59.08
2023-07-17T21:32:34.458Z,58.65
2023-07-17T21:35:01.722Z,58.49
2023-07-17T21:37:29.041Z,58.25
2023-07-17T21:39:56.319Z,58.46
2023-07-17T21:42:24.284Z,58.50
2023-07-17T21:44:51.834Z,58.31
2023-07-17T21:47:19.210Z,58.77
2023-07-17T21:49:49.373Z,58.67
2023-07-17T21:52:17.323Z,58.31
2023-07-17T21:54:44.628Z,58.36
2023-07-17T21:57:12.916Z,58.37
2023-07-17T21:59:43.330Z,58.49
2023-07-17T22:02:10.576Z,58.28
2023-07-17T22:04:37.876Z,58.16
2023-07-17T22:07:05.929Z,58.33
2023-07-17T22:09:33.462Z,58.40
2023-07-17T22:12:00.706Z,58.78
2023-07-17T22:14:29.890Z,58.83
2023-07-17T22:16:58.954Z,58.74
2023-07-17T22:19:26.306Z,59.15
2023-07-17T22:21:53.500Z,58.59
2023-07-17T22:24:20.803Z,58.64
2023-07-17T22:26:49.649Z,58.90
2023-07-17T22:29:17.197Z,58.36
2023-07-17T22:31:44.692Z,58.41
2023-07-17T22:34:13.129Z,58.54
2023-07-17T22:36:40.922Z,58.49
2023-07-17T22:39:08.313Z,58.43
2023-07-17T22:41:36.549Z,58.22
2023-07-17T22:44:04.170Z,58.38
2023-07-17T22:46:31.430Z,58.61
2023-07-17T22:48:59.494Z,58.78
2023-07-17T22:51:27.026Z,58.79
2023-07-17T22:53:54.334Z,58.46
2023-07-17T22:56:21.915Z,58.68
2023-07-17T22:58:49.319Z,58.65
2023-07-17T23:01:17.217Z,58.50
2023-07-17T23:03:44.703Z,58.72
2023-07-17T23:06:12.008Z,58.85
2023-07-17T23:08:39.218Z,59.06
2023-07-17T23:11:06.640Z,58.74
2023-07-17T23:13:34.079Z,58.77
2023-07-17T23:16:01.379Z,58.76
2023-07-17T23:18:29.497Z,58.17
2023-07-17T23:20:57.431Z,58.08
2023-07-17T23:23:25.244Z,57.84
2023-07-17T23:25:52.567Z,58.21
2023-07-17T23:28:19.855Z,58.13
2023-07-17T23:30:48.142Z,57.90
2023-07-17T23:33:15.663Z,58.16
2023-07-17T23:35:43.657Z,58.32
2023-07-17T23:38:10.952Z,58.31
2023-07-17T23:40:38.546Z,57.93
2023-07-17T23:43:06.372Z,58.18
2023-07-17T23:45:34.897Z,59.07
2023-07-17T23:48:02.152Z,59.19
2023-07-17T23:50:30.119Z,58.85
2023-07-17T23:52:57.549Z,58.40
2023-07-17T23:55:24.984Z,58.06
2023-07-17T23:57:52.856Z,57.35
